createdAt,value
2022-12-03T00:01:35.131Z,81.11
2022-12-03T00:04:03.566Z,81.19
2022-12-03T00:06:34.668Z,81.21
2022-12-03T00:09:04.775Z,81.31
2022-12-03T00:11:32.953Z,81.47
2022-12-03T00:14:01.010Z,81.44
2022-12-03T00:16:29.241Z,81.67
2022-12-03T00:18:57.431Z,81.91
2022-12-03T00:21:25.812Z,81.99
2022-12-03T00:23:53.994Z,81.86
2022-12-03T00:26:22.569Z,81.82
2022-12-03T00:28:51.321Z,82.02
2022-12-03T00:31:21.461Z,81.96
2022-12-03T00:33:53.440Z,82.11
2022-12-03T00:36:21.622Z,82.05
2022-12-03T00:38:49.528Z,82.21
2022-12-03T00:41:17.562Z,82.24
2022-12-03T00:43:45.625Z,82.37
2022-12-03T00:46:16.963Z,82.39
2022-12-03T00:48:47.917Z,82.49
2022-12-03T00:51:16.087Z,82.46
2022-12-03T00:53:44.160Z,82.49
2022-12-03T00:56:12.265Z,82.63
2022-12-03T00:58:40.357Z,82.73
2022-12-03T01:01:08.536Z,82.72
2022-12-03T01:03:36.856Z,82.73
2022-12-03T01:06:05.032Z,82.86
2022-12-03T01:08:33.034Z,82.98
2022-12-03T01:11:01.029Z,83.06
2022-12-03T01:13:29.349Z,83.16
2022-12-03T01:15:57.363Z,83.01
2022-12-03T01:18:25.429Z,83.05
2022-12-03T01:20:53.464Z,83.12
2022-12-03T01:23:21.534Z,82.94
2022-12-03T01:25:49.606Z,83.04
2022-12-03T01:28:17.678Z,83.08
2022-12-03T01:31:04.141Z,83.02
2022-12-03T01:33:32.254Z,82.98
2022-12-03T01:36:00.224Z,82.91
2022-12-03T01:38:28.245Z,82.97
2022-12-03T01:40:56.572Z,83.04
2022-12-03T01:43:24.644Z,82.74
2022-12-03T01:45:52.660Z,82.77
2022-12-03T01:48:20.703Z,82.45
2022-12-03T01:50:48.859Z,82.33
2022-12-03T01:53:19.093Z,82.74
2022-12-03T01:55:49.026Z,82.88
2022-12-03T01:58:22.420Z,82.97
2022-12-03T02:00:50.721Z,82.85
2022-12-03T02:03:23.507Z,82.72
2022-12-03T02:05:52.607Z,82.79
2022-12-03T02:08:35.432Z,82.82
2022-12-03T02:11:11.732Z,82.84
2022-12-03T02:13:40.214Z,82.87
2022-12-03T02:16:08.880Z,82.69
2022-12-03T02:18:37.177Z,82.70
2022-12-03T02:21:17.185Z,82.75
2022-12-03T02:23:51.251Z,82.88
2022-12-03T02:26:19.468Z,82.89
2022-12-03T02:28:47.599Z,82.30
2022-12-03T02:31:15.943Z,82.36
2022-12-03T02:33:44.554Z,82.33
2022-12-03T02:36:13.110Z,82.32
2022-12-03T02:38:43.220Z,82.56
2022-12-03T02:41:35.968Z,82.73
2022-12-03T02:44:06.854Z,82.89
2022-12-03T02:46:35.729Z,82.96
2022-12-03T02:49:06.309Z,82.82
2022-12-03T02:51:35.052Z,82.92
2022-12-03T02:54:03.807Z,82.88
2022-12-03T02:56:33.433Z,82.78
2022-12-03T02:59:05.023Z,82.86
2022-12-03T03:01:34.991Z,82.88
2022-12-03T03:04:04.631Z,82.82
2022-12-03T03:06:32.909Z,82.70
2022-12-03T03:09:01.187Z,82.76
2022-12-03T03:11:29.457Z,82.74
2022-12-03T03:13:57.735Z,82.73
2022-12-03T03:16:25.864Z,82.68
2022-12-03T03:18:53.979Z,82.58
2022-12-03T03:21:22.054Z,82.62
2022-12-03T03:23:50.022Z,82.63
2022-12-03T03:26:18.201Z,82.64
2022-12-03T03:28:49.957Z,82.70
2022-12-03T03:31:22.908Z,82.73
2022-12-03T03:33:52.036Z,82.84
2022-12-03T03:36:20.824Z,82.86
2022-12-03T03:38:49.511Z,82.93
2022-12-03T03:41:18.813Z,83.04
2022-12-03T03:43:47.708Z,82.83
2022-12-03T03:46:17.504Z,83.01
2022-12-03T03:48:48.446Z,82.97
2022-12-03T03:51:17.653Z,82.93
2022-12-03T03:53:48.445Z,82.97
2022-12-03T03:56:19.343Z,82.92
2022-12-03T03:58:47.607Z,82.96
2022-12-03T04:01:17.269Z,82.96
2022-12-03T04:03:45.420Z,83.00
2022-12-03T04:06:13.459Z,82.77
2022-12-03T04:08:41.429Z,82.84
2022-12-03T04:11:28.043Z,83.03
2022-12-03T04:13:56.146Z,83.07
2022-12-03T04:16:24.340Z,83.04
2022-12-03T04:18:52.560Z,82.94
2022-12-03T04:21:41.747Z,82.96
2022-12-03T04:24:10.820Z,83.05
2022-12-03T04:26:57.530Z,83.14
2022-12-03T04:29:25.601Z,82.97
2022-12-03T04:32:12.286Z,83.07
2022-12-03T04:34:58.966Z,82.94
2022-12-03T04:37:27.296Z,82.79
2022-12-03T04:39:55.470Z,82.72
2022-12-03T04:42:23.542Z,82.68
2022-12-03T04:44:52.276Z,82.62
2022-12-03T04:47:21.972Z,82.55
2022-12-03T04:49:52.087Z,82.45
2022-12-03T04:52:21.227Z,82.23
2022-12-03T04:54:49.440Z,82.02
2022-12-03T04:57:17.919Z,82.03
2022-12-03T04:59:46.201Z,82.09
2022-12-03T05:02:14.425Z,82.22
2022-12-03T05:04:43.673Z,82.20
2022-12-03T05:07:11.848Z,82.02
2022-12-03T05:09:39.907Z,82.07
2022-12-03T05:12:08.287Z,81.78
2022-12-03T05:14:36.767Z,81.54
2022-12-03T05:17:04.912Z,81.42
2022-12-03T05:19:51.961Z,81.12
2022-12-03T05:22:20.115Z,81.04
2022-12-03T05:24:48.386Z,81.03
2022-12-03T05:27:21.769Z,80.92
2022-12-03T05:29:52.137Z,80.78
2022-12-03T05:32:20.409Z,80.87
2022-12-03T05:34:48.635Z,80.89
2022-12-03T05:37:16.758Z,81.12
2022-12-03T05:39:44.937Z,81.22
2022-12-03T05:42:31.689Z,81.21
2022-12-03T05:44:59.915Z,81.24
2022-12-03T05:47:27.936Z,81.25
2022-12-03T05:49:56.039Z,81.20
2022-12-03T05:52:24.235Z,81.13
2022-12-03T05:54:52.600Z,80.99
2022-12-03T05:57:20.932Z,80.98
2022-12-03T05:59:49.036Z,80.98
2022-12-03T06:02:17.260Z,81.14
2022-12-03T06:04:45.767Z,81.20
2022-12-03T06:07:14.457Z,81.12
2022-12-03T06:09:42.682Z,81.10
2022-12-03T06:12:10.653Z,81.10
2022-12-03T06:14:39.045Z,81.20
2022-12-03T06:17:07.316Z,81.23
2022-12-03T06:19:35.491Z,81.24
2022-12-03T06:22:03.671Z,81.27
2022-12-03T06:24:31.837Z,81.58
2022-12-03T06:26:59.908Z,81.69
2022-12-03T06:29:27.980Z,81.85
2022-12-03T06:31:56.051Z,81.92
2022-12-03T06:34:24.139Z,81.93
2022-12-03T06:36:52.396Z,81.87
2022-12-03T06:39:22.748Z,81.50
2022-12-03T06:41:51.101Z,81.47
2022-12-03T06:44:19.183Z,81.70
2022-12-03T06:46:47.597Z,81.69
2022-12-03T06:49:15.825Z,81.75
2022-12-03T06:51:43.816Z,81.94
2022-12-03T06:54:12.484Z,81.98
2022-12-03T06:56:45.170Z,82.10
2022-12-03T06:59:13.963Z,82.10
2022-12-03T07:01:42.331Z,82.02
2022-12-03T07:04:10.683Z,82.09
2022-12-03T07:06:39.086Z,82.14
2022-12-03T07:09:07.262Z,82.09
2022-12-03T07:11:40.682Z,82.00
2022-12-03T07:14:11.630Z,81.87
2022-12-03T07:16:40.496Z,81.72
2022-12-03T07:19:09.382Z,81.88
2022-12-03T07:21:37.519Z,82.05
2022-12-03T07:24:06.756Z,81.94
2022-12-03T07:26:34.823Z,81.89
2022-12-03T07:29:03.515Z,81.86
2022-12-03T07:31:32.015Z,81.87
2022-12-03T07:34:00.069Z,81.83
2022-12-03T07:36:28.217Z,81.68
2022-12-03T07:38:56.309Z,81.48
2022-12-03T07:41:24.277Z,81.37
2022-12-03T07:43:52.350Z,81.21
2022-12-03T07:46:20.558Z,81.11
2022-12-03T07:48:48.598Z,81.11
2022-12-03T07:51:16.669Z,81.04
2022-12-03T07:53:44.739Z,81.22
2022-12-03T07:56:13.018Z,81.34
2022-12-03T07:58:41.208Z,81.51
2022-12-03T08:01:10.500Z,81.41
2022-12-03T08:03:38.773Z,81.25
2022-12-03T08:06:07.148Z,81.90
2022-12-03T08:08:35.424Z,82.55
2022-12-03T08:11:04.185Z,82.69
2022-12-03T08:13:34.335Z,82.26
2022-12-03T08:16:14.050Z,82.08
2022-12-03T08:18:42.111Z,82.39
2022-12-03T08:21:12.889Z,82.40
2022-12-03T08:23:41.751Z,82.18
2022-12-03T08:26:30.130Z,82.47
2022-12-03T08:28:58.216Z,82.18
2022-12-03T08:31:32.792Z,81.85
2022-12-03T08:34:23.009Z,81.61
2022-12-03T08:36:56.358Z,81.65
2022-12-03T08:39:30.540Z,82.17
2022-12-03T08:42:28.291Z,82.34
2022-12-03T08:44:57.097Z,82.32
2022-12-03T08:47:25.562Z,82.33
2022-12-03T08:50:23.741Z,82.42
2022-12-03T08:52:53.242Z,82.52
2022-12-03T08:55:37.041Z,82.51
2022-12-03T08:58:36.327Z,82.71
2022-12-03T09:01:07.471Z,82.75
2022-12-03T09:03:35.759Z,82.40
2022-12-03T09:06:04.352Z,82.55
2022-12-03T09:08:32.474Z,82.72
2022-12-03T09:11:01.458Z,82.62
2022-12-03T09:13:29.380Z,82.70
2022-12-03T09:15:58.526Z,82.46
2022-12-03T09:18:27.216Z,82.39
2022-12-03T09:20:56.619Z,82.29
2022-12-03T09:23:24.687Z,82.57
2022-12-03T09:25:52.965Z,82.33
2022-12-03T09:28:21.143Z,82.20
2022-12-03T09:30:49.211Z,82.06
2022-12-03T09:33:17.381Z,81.85
2022-12-03T09:35:45.455Z,81.94
2022-12-03T09:38:13.529Z,81.68
2022-12-03T09:40:42.419Z,81.51
2022-12-03T09:43:12.744Z,81.78
2022-12-03T09:45:40.810Z,81.67
2022-12-03T09:48:09.039Z,81.54
2022-12-03T09:50:41.571Z,81.45
2022-12-03T09:53:17.744Z,81.56
2022-12-03T09:55:49.608Z,81.48
2022-12-03T09:58:19.216Z,81.43
2022-12-03T10:00:48.534Z,81.37
2022-12-03T10:03:23.026Z,81.54
2022-12-03T10:05:53.980Z,81.73
2022-12-03T10:08:26.943Z,81.63
2022-12-03T10:10:57.686Z,81.70
2022-12-03T10:13:31.085Z,81.41
2022-12-03T10:16:01.006Z,81.33
2022-12-03T10:18:38.315Z,81.36
2022-12-03T10:21:23.663Z,81.57
2022-12-03T10:24:16.927Z,81.13
2022-12-03T10:26:46.750Z,81.01
2022-12-03T10:29:33.649Z,80.99
2022-12-03T10:32:12.927Z,80.88
2022-12-03T10:34:42.495Z,80.73
2022-12-03T10:37:18.716Z,80.89
2022-12-03T10:40:08.635Z,80.78
2022-12-03T10:42:39.808Z,80.48
2022-12-03T10:45:25.431Z,80.08
2022-12-03T10:48:07.461Z,79.74
2022-12-03T10:50:36.340Z,79.57
2022-12-03T10:53:05.143Z,79.41
2022-12-03T10:55:39.860Z,79.14
2022-12-03T10:58:26.269Z,78.38
2022-12-03T11:00:56.502Z,77.68
2022-12-03T11:03:26.713Z,76.65
2022-12-03T11:05:56.796Z,76.60
2022-12-03T11:08:35.767Z,76.16
2022-12-03T11:11:08.084Z,75.63
2022-12-03T11:13:36.102Z,75.13
2022-12-03T11:16:06.193Z,74.71
2022-12-03T11:18:37.389Z,74.52
2022-12-03T11:21:05.950Z,74.81
2022-12-03T11:23:46.039Z,74.70
2022-12-03T11:26:19.218Z,74.48
2022-12-03T11:28:47.757Z,73.91
2022-12-03T11:31:48.002Z,73.90
2022-12-03T11:34:19.805Z,73.86
2022-12-03T11:37:10.065Z,73.89
2022-12-03T11:39:51.079Z,73.69
2022-12-03T11:42:27.933Z,73.38
2022-12-03T11:45:05.429Z,73.68
2022-12-03T11:48:00.305Z,73.59
2022-12-03T11:50:41.540Z,73.74
2022-12-03T11:53:15.742Z,73.68
2022-12-03T11:56:06.279Z,73.55
2022-12-03T11:58:38.277Z,73.45
2022-12-03T12:01:08.287Z,73.58
2022-12-03T12:03:36.401Z,73.41
2022-12-03T12:06:13.885Z,73.54
2022-12-03T12:08:56.931Z,73.63
2022-12-03T12:11:41.507Z,73.71
2022-12-03T12:14:13.882Z,73.92
2022-12-03T12:16:52.437Z,74.13
2022-12-03T12:19:54.095Z,74.24
2022-12-03T12:22:25.605Z,74.24
2022-12-03T12:24:58.922Z,74.27
2022-12-03T12:27:51.262Z,74.19
2022-12-03T12:30:24.557Z,74.02
2022-12-03T12:33:13.214Z,74.07
2022-12-03T12:35:42.105Z,73.86
2022-12-03T12:38:11.200Z,73.91
2022-12-03T12:40:40.500Z,73.88
2022-12-03T12:43:24.078Z,73.89
2022-12-03T12:45:55.282Z,73.98
2022-12-03T12:48:25.199Z,74.01
2022-12-03T12:51:08.833Z,74.01
2022-12-03T12:53:38.742Z,74.06
2022-12-03T12:56:20.337Z,74.03
2022-12-03T12:58:48.310Z,73.97
2022-12-03T13:01:29.159Z,73.87
2022-12-03T13:03:58.459Z,73.41
2022-12-03T13:06:27.986Z,73.02
2022-12-03T13:08:57.199Z,72.63
2022-12-03T13:11:25.260Z,72.65
2022-12-03T13:13:53.371Z,72.77
2022-12-03T13:16:32.768Z,72.81
2022-12-03T13:19:01.144Z,72.89
2022-12-03T13:21:39.986Z,73.00
2022-12-03T13:24:35.980Z,73.11
2022-12-03T13:27:22.748Z,73.30
2022-12-03T13:29:59.275Z,73.47
2022-12-03T13:32:31.171Z,73.49
2022-12-03T13:35:06.067Z,73.61
2022-12-03T13:37:34.243Z,73.97
2022-12-03T13:40:22.590Z,74.09
2022-12-03T13:42:50.531Z,74.08
2022-12-03T13:45:24.995Z,74.26
2022-12-03T13:48:00.283Z,74.63
2022-12-03T13:50:39.539Z,74.88
2022-12-03T13:53:37.028Z,75.10
2022-12-03T13:56:17.077Z,75.42
2022-12-03T13:58:45.150Z,75.80
2022-12-03T14:01:13.259Z,75.98
2022-12-03T14:03:41.391Z,76.10
2022-12-03T14:06:09.316Z,76.01
2022-12-03T14:08:37.745Z,75.75
2022-12-03T14:11:06.223Z,75.61
2022-12-03T14:13:34.499Z,75.30
2022-12-03T14:16:02.677Z,75.34
2022-12-03T14:18:30.847Z,75.56
2022-12-03T14:20:59.031Z,76.13
2022-12-03T14:23:27.709Z,76.31
2022-12-03T14:25:55.791Z,76.37
2022-12-03T14:28:23.951Z,75.96
2022-12-03T14:30:53.666Z,75.57
2022-12-03T14:33:21.971Z,75.69
2022-12-03T14:35:53.515Z,75.72
2022-12-03T14:38:22.382Z,75.72
2022-12-03T14:40:50.454Z,75.67
2022-12-03T14:43:18.449Z,75.27
2022-12-03T14:45:46.867Z,75.33
2022-12-03T14:48:14.918Z,75.36
2022-12-03T14:50:43.153Z,75.30
2022-12-03T14:53:11.104Z,75.07
2022-12-03T14:55:39.401Z,75.14
2022-12-03T14:58:07.312Z,75.58
2022-12-03T15:00:35.340Z,76.22
2022-12-03T15:03:03.486Z,76.31
2022-12-03T15:05:31.690Z,76.22
2022-12-03T15:07:59.823Z,76.53
2022-12-03T15:10:27.847Z,76.87
2022-12-03T15:12:56.003Z,77.13
2022-12-03T15:15:24.595Z,76.89
2022-12-03T15:17:52.866Z,77.25
2022-12-03T15:20:20.894Z,77.66
2022-12-03T15:22:49.053Z,77.16
2022-12-03T15:25:24.299Z,77.76
2022-12-03T15:27:52.624Z,78.27
2022-12-03T15:30:20.839Z,78.47
2022-12-03T15:32:49.247Z,78.50
2022-12-03T15:35:18.803Z,78.40
2022-12-03T15:37:47.164Z,78.53
2022-12-03T15:40:15.545Z,78.57
2022-12-03T15:42:43.873Z,78.61
2022-12-03T15:45:15.328Z,78.49
2022-12-03T15:47:44.128Z,78.46
2022-12-03T15:50:14.210Z,79.00
2022-12-03T15:52:42.665Z,80.01
2022-12-03T15:55:10.836Z,80.86
2022-12-03T15:57:39.075Z,81.12
2022-12-03T16:00:08.620Z,81.33
2022-12-03T16:02:41.396Z,81.24
2022-12-03T16:05:12.216Z,81.21
2022-12-03T16:07:40.909Z,81.43
2022-12-03T16:10:11.006Z,81.69
2022-12-03T16:12:39.130Z,81.61
2022-12-03T16:15:07.553Z,81.83
2022-12-03T16:17:35.771Z,81.71
2022-12-03T16:20:04.969Z,82.18
2022-12-03T16:22:33.095Z,82.42
2022-12-03T16:25:01.217Z,82.61
2022-12-03T16:27:29.391Z,82.93
2022-12-03T16:29:57.579Z,82.20
2022-12-03T16:32:25.942Z,82.41
2022-12-03T16:34:53.909Z,82.47
2022-12-03T16:37:21.985Z,82.61
2022-12-03T16:39:52.101Z,83.15
2022-12-03T16:42:20.586Z,83.17
2022-12-03T16:45:12.363Z,82.66
2022-12-03T16:47:40.386Z,81.59
2022-12-03T16:50:12.820Z,81.71
2022-12-03T16:52:47.440Z,83.31
2022-12-03T16:55:15.455Z,83.20
2022-12-03T16:57:43.527Z,82.92
2022-12-03T17:00:12.211Z,82.77
2022-12-03T17:02:40.198Z,82.26
2022-12-03T17:05:09.027Z,81.91
2022-12-03T17:07:37.341Z,82.22
2022-12-03T17:10:06.710Z,82.05
2022-12-03T17:13:07.129Z,82.33
2022-12-03T17:15:22.866Z,82.96
2022-12-03T17:17:50.909Z,83.67
2022-12-03T17:20:20.139Z,83.91
2022-12-03T17:22:48.417Z,84.32
2022-12-03T17:25:16.448Z,84.73
2022-12-03T17:27:48.615Z,84.63
2022-12-03T17:30:17.253Z,84.70
2022-12-03T17:32:45.346Z,84.10
2022-12-03T17:35:13.721Z,84.04
2022-12-03T17:37:41.799Z,83.60
2022-12-03T17:40:12.411Z,83.14
2022-12-03T17:42:40.550Z,82.89
2022-12-03T17:45:09.516Z,82.72
2022-12-03T17:47:37.554Z,83.01
2022-12-03T17:50:07.207Z,83.27
2022-12-03T17:52:35.236Z,83.59
2022-12-03T17:55:15.841Z,83.60
2022-12-03T17:57:49.704Z,83.74
2022-12-03T18:00:18.387Z,83.64
2022-12-03T18:02:46.526Z,83.81
2022-12-03T18:05:14.782Z,83.87
2022-12-03T18:07:42.882Z,83.94
2022-12-03T18:10:12.319Z,84.23
2022-12-03T18:12:40.685Z,84.14
2022-12-03T18:15:09.777Z,84.37
2022-12-03T18:17:38.155Z,84.47
2022-12-03T18:20:07.046Z,84.19
2022-12-03T18:22:35.940Z,84.29
2022-12-03T18:25:05.137Z,84.51
2022-12-03T18:27:34.231Z,84.72
2022-12-03T18:30:02.250Z,84.79
2022-12-03T18:32:30.606Z,84.92
2022-12-03T18:34:58.760Z,84.60
2022-12-03T18:37:28.775Z,84.41
2022-12-03T18:40:00.170Z,84.79
2022-12-03T18:42:28.313Z,84.97
2022-12-03T18:44:57.070Z,85.26
2022-12-03T18:47:29.106Z,85.40
2022-12-03T18:49:57.788Z,85.56
2022-12-03T18:52:26.315Z,85.60
2022-12-03T18:54:55.514Z,85.51
2022-12-03T18:57:24.096Z,85.45
2022-12-03T18:59:52.277Z,84.77
2022-12-03T19:05:10.558Z,84.57
2022-12-03T19:07:38.738Z,84.66
2022-12-03T19:10:08.039Z,84.53
2022-12-03T19:12:36.233Z,84.90
2022-12-03T19:15:06.062Z,85.17
2022-12-03T19:17:39.727Z,85.33
2022-12-03T19:20:09.584Z,85.56
2022-12-03T19:22:37.712Z,85.52
2022-12-03T19:25:06.294Z,85.62
2022-12-03T19:27:34.520Z,85.76
2022-12-03T19:30:02.547Z,85.92
2022-12-03T19:32:30.719Z,85.85
2022-12-03T19:34:59.096Z,85.81
2022-12-03T19:37:27.167Z,86.18
2022-12-03T19:39:55.557Z,85.75
2022-12-03T19:42:25.530Z,85.79
2022-12-03T19:44:53.741Z,85.71
2022-12-03T19:47:24.765Z,85.84
2022-12-03T19:49:53.969Z,86.19
2022-12-03T19:52:22.187Z,86.50
2022-12-03T19:54:50.274Z,87.60
2022-12-03T19:57:23.234Z,87.58
2022-12-03T19:59:52.041Z,87.60
2022-12-03T20:02:20.505Z,87.66
2022-12-03T20:04:48.862Z,87.69
2022-12-03T20:07:16.837Z,87.84
2022-12-03T20:09:45.110Z,87.65
2022-12-03T20:12:13.178Z,87.50
2022-12-03T20:14:41.556Z,87.37
2022-12-03T20:17:09.783Z,87.37
2022-12-03T20:19:38.012Z,87.36
2022-12-03T20:22:06.184Z,87.47
2022-12-03T20:24:34.258Z,87.21
2022-12-03T20:27:03.375Z,86.82
2022-12-03T20:29:31.646Z,86.35
2022-12-03T20:32:00.611Z,86.52
2022-12-03T20:34:28.744Z,86.44
2022-12-03T20:36:56.684Z,86.45
2022-12-03T20:39:25.057Z,85.83
2022-12-03T20:41:53.122Z,86.29
2022-12-03T20:44:21.186Z,86.65
2022-12-03T20:46:49.669Z,86.51
2022-12-03T20:49:17.658Z,85.96
2022-12-03T20:51:46.022Z,86.10
2022-12-03T20:54:14.213Z,86.19
2022-12-03T20:56:42.369Z,86.57
2022-12-03T20:59:13.002Z,86.49
2022-12-03T21:01:42.934Z,86.28
2022-12-03T21:04:18.118Z,86.42
2022-12-03T21:06:46.457Z,86.27
2022-12-03T21:09:14.812Z,86.02
2022-12-03T21:11:43.331Z,86.11
2022-12-03T21:14:11.669Z,86.10
2022-12-03T21:17:06.444Z,86.48
2022-12-03T21:19:28.360Z,86.58
2022-12-03T21:21:56.739Z,86.64
2022-12-03T21:24:24.846Z,86.97
2022-12-03T21:26:53.039Z,87.11
2022-12-03T21:29:21.216Z,86.98
2022-12-03T21:31:49.272Z,86.62
2022-12-03T21:34:17.683Z,86.85
2022-12-03T21:36:46.333Z,86.97
2022-12-03T21:39:14.762Z,87.18
2022-12-03T21:42:22.106Z,87.37
2022-12-03T21:44:30.852Z,87.41
2022-12-03T21:47:09.876Z,87.44
2022-12-03T21:49:42.356Z,87.48
2022-12-03T21:52:11.010Z,87.72
2022-12-03T21:54:39.111Z,87.54
2022-12-03T21:57:07.157Z,87.62
2022-12-03T21:59:35.231Z,87.75
2022-12-03T22:02:03.820Z,87.90
2022-12-03T22:04:32.250Z,87.92
2022-12-03T22:07:00.569Z,87.46
2022-12-03T22:09:28.644Z,86.84
2022-12-03T22:11:59.306Z,87.85
2022-12-03T22:14:28.473Z,88.27
2022-12-03T22:16:56.544Z,88.69
2022-12-03T22:19:26.055Z,88.86
2022-12-03T22:21:54.221Z,89.78
2022-12-03T22:24:23.896Z,89.70
2022-12-03T22:26:53.608Z,90.48
2022-12-03T22:29:22.024Z,90.24
2022-12-03T22:31:50.402Z,90.04
2022-12-03T22:34:18.544Z,89.69
2022-12-03T22:36:46.753Z,89.17
2022-12-03T22:39:14.828Z,89.42
2022-12-03T22:41:42.896Z,89.36
2022-12-03T22:44:10.964Z,89.33
2022-12-03T22:46:39.961Z,89.41
2022-12-03T22:49:08.442Z,89.44
2022-12-03T22:51:36.921Z,89.46
2022-12-03T22:54:06.228Z,89.29
2022-12-03T22:56:34.909Z,89.28
2022-12-03T22:59:03.187Z,89.42
2022-12-03T23:01:33.833Z,89.33
2022-12-03T23:04:02.879Z,89.31
2022-12-03T23:06:30.951Z,89.30
2022-12-03T23:08:59.774Z,89.29
2022-12-03T23:11:28.768Z,89.19
2022-12-03T23:13:59.052Z,89.17
2022-12-03T23:16:30.310Z,89.15
2022-12-03T23:19:00.664Z,89.39
2022-12-03T23:21:32.735Z,89.64
2022-12-03T23:24:03.576Z,89.61
2022-12-03T23:26:36.348Z,89.48
2022-12-03T23:29:06.296Z,89.42
2022-12-03T23:31:35.006Z,89.24
2022-12-03T23:34:04.119Z,89.05
2022-12-03T23:36:33.478Z,88.80
2022-12-03T23:39:01.394Z,88.94
2022-12-03T23:41:29.475Z,88.82
2022-12-03T23:43:57.838Z,88.88
2022-12-03T23:46:27.781Z,88.75
2022-12-03T23:48:58.646Z,88.55
2022-12-03T23:51:27.500Z,88.62
2022-12-03T23:53:56.751Z,88.59
2022-12-03T23:56:29.303Z,88.73
2022-12-03T23:58:58.471Z,88.78
